sensor_id;sensor_type;location;lat;lon;timestamp;pressure;altitude;pressure_sealevel;temperature;humidity
7754;BME280;3921;42.266;23.122;2023-03-21T00:44:12;94940.88;;;8.03;54.53
7754;BME280;3921;42.266;23.122;2023-03-21T01:02:18;95521.66;;;11.31;56.59
7754;BME280;3921;42.266;23.122;2023-03-21T01:05:02;95499.81;;;11.36;56.59
7754;BME280;3921;42.266;23.122;2023-03-21T01:07:42;94862.84;;;7.22;56.38
7754;BME280;3921;42.266;23.122;2023-03-21T01:10:11;94950.16;;;7.73;56.35
7754;BME280;3921;42.266;23.122;2023-03-21T01:12:41;94978.44;;;7.92;56.87
7754;BME280;3921;42.266;23.122;2023-03-21T01:15:12;94967.66;;;7.78;56.29
7754;BME280;3921;42.266;23.122;2023-03-21T01:20:34;95495.84;;;11.06;56.58
7754;BME280;3921;42.266;23.122;2023-03-21T01:23:23;95120.03;;;8.61;57.02
7754;BME280;3921;42.266;23.122;2023-03-21T01:31:00;94973.50;;;7.76;56.55
7754;BME280;3921;42.266;23.122;2023-03-21T01:33:33;95111.69;;;8.57;56.35
7754;BME280;3921;42.266;23.122;2023-03-21T01:36:02;95068.38;;;8.29;56.62
7754;BME280;3921;42.266;23.122;2023-03-21T01:50:13;95480.94;;;10.81;56.63
7754;BME280;3921;42.266;23.122;2023-03-21T01:55:39;95036.81;;;7.79;56.68
7754;BME280;3921;42.266;23.122;2023-03-21T01:58:10;95336.78;;;9.67;57.01
7754;BME280;3921;42.266;23.122;2023-03-21T02:00:49;94951.06;;;7.53;57.05
7754;BME280;3921;42.266;23.122;2023-03-21T02:03:18;95296.50;;;9.90;57.22
7754;BME280;3921;42.266;23.122;2023-03-21T02:06:10;94971.03;;;7.66;56.56
7754;BME280;3921;42.266;23.122;2023-03-21T02:08:41;95464.09;;;10.89;57.34
7754;BME280;3921;42.266;23.122;2023-03-21T02:11:30;95067.56;;;8.22;56.88
7754;BME280;3921;42.266;23.122;2023-03-21T02:16:44;95185.00;;;9.00;57.07
7754;BME280;3921;42.266;23.122;2023-03-21T02:19:42;95355.81;;;10.02;56.80
7754;BME280;3921;42.266;23.122;2023-03-21T02:22:41;94974.41;;;7.44;57.70
7754;BME280;3921;42.266;23.122;2023-03-21T02:25:38;95462.56;;;10.72;57.78
7754;BME280;3921;42.266;23.122;2023-03-21T02:28:19;94960.22;;;7.51;56.83
7754;BME280;3921;42.266;23.122;2023-03-21T02:38:40;95002.72;;;7.49;57.81
7754;BME280;3921;42.266;23.122;2023-03-21T02:41:15;94985.25;;;7.40;57.36
7754;BME280;3921;42.266;23.122;2023-03-21T02:43:46;95329.38;;;9.34;58.05
7754;BME280;3921;42.266;23.122;2023-03-21T02:46:20;95037.72;;;7.60;57.63
7754;BME280;3921;42.266;23.122;2023-03-21T02:48:53;95490.25;;;10.66;57.06
7754;BME280;3921;42.266;23.122;2023-03-21T02:51:25;95109.28;;;8.13;57.76
7754;BME280;3921;42.266;23.122;2023-03-21T02:54:00;94941.13;;;7.21;57.51
7754;BME280;3921;42.266;23.122;2023-03-21T02:56:43;94965.28;;;7.14;57.86
7754;BME280;3921;42.266;23.122;2023-03-21T02:59:21;94974.44;;;7.24;57.88
7754;BME280;3921;42.266;23.122;2023-03-21T03:01:52;94966.09;;;7.28;57.60
7754;BME280;3921;42.266;23.122;2023-03-21T03:04:24;94971.09;;;7.42;57.59
7754;BME280;3921;42.266;23.122;2023-03-21T03:07:18;95275.88;;;9.35;58.02
7754;BME280;3921;42.266;23.122;2023-03-21T03:10:21;95350.97;;;9.73;57.96
7754;BME280;3921;42.266;23.122;2023-03-21T03:16:24;95464.44;;;10.42;58.53
7754;BME280;3921;42.266;23.122;2023-03-21T03:19:02;94943.66;;;7.01;58.17
7754;BME280;3921;42.266;23.122;2023-03-21T03:21:41;95461.94;;;10.44;58.28
7754;BME280;3921;42.266;23.122;2023-03-21T03:24:24;95062.69;;;7.78;58.10
7754;BME280;3921;42.266;23.122;2023-03-21T03:26:56;95464.47;;;10.39;58.55
7754;BME280;3921;42.266;23.122;2023-03-21T03:29:33;95151.84;;;8.16;57.97
7754;BME280;3921;42.266;23.122;2023-03-21T03:32:11;94996.94;;;7.26;58.13
7754;BME280;3921;42.266;23.122;2023-03-21T03:34:43;95468.69;;;10.26;58.91
7754;BME280;3921;42.266;23.122;2023-03-21T03:37:16;95239.34;;;8.80;58.65
7754;BME280;3921;42.266;23.122;2023-03-21T03:39:50;95357.72;;;9.51;58.99
7754;BME280;3921;42.266;23.122;2023-03-21T03:42:23;94894.56;;;6.58;59.08
7754;BME280;3921;42.266;23.122;2023-03-21T03:44:51;94964.47;;;6.95;60.01
7754;BME280;3921;42.266;23.122;2023-03-21T03:47:23;95116.88;;;7.65;59.57
7754;BME280;3921;42.266;23.122;2023-03-21T03:50:00;95248.56;;;8.66;59.93
7754;BME280;3921;42.266;23.122;2023-03-21T03:52:32;94959.47;;;6.58;60.01
7754;BME280;3921;42.266;23.122;2023-03-21T03:55:01;95256.94;;;8.36;60.74
7754;BME280;3921;42.266;23.122;2023-03-21T03:57:29;95485.66;;;9.51;61.60
7754;BME280;3921;42.266;23.122;2023-03-21T03:59:57;95118.53;;;7.33;61.57
7754;BME280;3921;42.266;23.122;2023-03-21T04:02:28;95315.34;;;8.67;62.07
7754;BME280;3921;42.266;23.122;2023-03-21T04:04:56;95327.91;;;8.61;61.92
7754;BME280;3921;42.266;23.122;2023-03-21T04:07:24;94925.25;;;5.99;61.51
7754;BME280;3921;42.266;23.122;2023-03-21T04:09:52;95073.53;;;6.88;61.78
7754;BME280;3921;42.266;23.122;2023-03-21T05:25:52;95124.38;;;7.24;60.94
7754;BME280;3921;42.266;23.122;2023-03-21T05:33:32;95041.88;;;6.87;61.25
7754;BME280;3921;42.266;23.122;2023-03-21T05:55:08;94884.44;;;5.79;61.43
7754;BME280;3921;42.266;23.122;2023-03-21T05:58:23;95468.84;;;9.83;61.91
7754;BME280;3921;42.266;23.122;2023-03-21T06:24:14;94965.31;;;7.08;60.82
7754;BME280;3921;42.266;23.122;2023-03-21T07:34:38;94930.50;;;8.67;56.30
7754;BME280;3921;42.266;23.122;2023-03-21T07:37:08;95466.28;;;12.14;56.06
7754;BME280;3921;42.266;23.122;2023-03-21T08:36:46;95430.66;;;12.95;54.14
7754;BME280;3921;42.266;23.122;2023-03-21T08:39:16;94893.75;;;9.55;53.61
7754;BME280;3921;42.266;23.122;2023-03-21T12:52:33;95036.84;;;15.06;39.82
7754;BME280;3921;42.266;23.122;2023-03-21T15:28:19;94929.69;;;13.95;47.53
7754;BME280;3921;42.266;23.122;2023-03-21T15:30:48;95015.31;;;14.65;47.69
7754;BME280;3921;42.266;23.122;2023-03-21T15:33:17;94969.66;;;14.40;48.14
7754;BME280;3921;42.266;23.122;2023-03-21T15:35:49;94993.97;;;14.44;48.54
7754;BME280;3921;42.266;23.122;2023-03-21T15:38:23;94863.03;;;13.71;49.50
7754;BME280;3921;42.266;23.122;2023-03-21T15:44:12;94761.28;;;12.76;50.71
7754;BME280;3921;42.266;23.122;2023-03-21T15:46:44;94677.88;;;12.21;51.04
7754;BME280;3921;42.266;23.122;2023-03-21T15:52:10;95034.75;;;14.32;51.89
7754;BME280;3921;42.266;23.122;2023-03-21T15:54:42;95164.50;;;15.26;51.99
7754;BME280;3921;42.266;23.122;2023-03-21T15:57:19;95027.66;;;14.45;52.34
7754;BME280;3921;42.266;23.122;2023-03-21T15:59:54;95052.47;;;14.63;53.04
7754;BME280;3921;42.266;23.122;2023-03-21T16:02:33;94674.72;;;12.12;52.67
7754;BME280;3921;42.266;23.122;2023-03-21T16:05:23;95168.09;;;15.17;52.75
7754;BME280;3921;42.266;23.122;2023-03-21T16:08:04;94752.03;;;12.42;52.69
7754;BME280;3921;42.266;23.122;2023-03-21T16:10:34;95050.34;;;14.48;53.37
7754;BME280;3921;42.266;23.122;2023-03-21T16:16:26;94721.44;;;12.23;53.53
7754;BME280;3921;42.266;23.122;2023-03-21T16:18:59;94791.69;;;12.70;53.74
7754;BME280;3921;42.266;23.122;2023-03-21T16:21:33;94687.13;;;12.19;54.06
7754;BME280;3921;42.266;23.122;2023-03-21T16:24:16;94657.63;;;11.90;54.36
7754;BME280;3921;42.266;23.122;2023-03-21T16:26:45;94834.16;;;12.84;54.92
7754;BME280;3921;42.266;23.122;2023-03-21T16:29:17;94649.72;;;11.70;54.80
7754;BME280;3921;42.266;23.122;2023-03-21T16:31:49;94726.63;;;12.17;55.08
7754;BME280;3921;42.266;23.122;2023-03-21T16:34:27;94833.56;;;12.75;55.32
7754;BME280;3921;42.266;23.122;2023-03-21T16:37:18;94763.19;;;12.32;55.59
7754;BME280;3921;42.266;23.122;2023-03-21T17:05:48;94691.53;;;11.76;51.54
7754;BME280;3921;42.266;23.122;2023-03-21T17:08:21;94715.91;;;11.72;53.95
7754;BME280;3921;42.266;23.122;2023-03-21T17:13:25;94843.56;;;12.43;55.14
7754;BME280;3921;42.266;23.122;2023-03-21T17:15:54;95186.31;;;14.68;54.95
7754;BME280;3921;42.266;23.122;2023-03-21T17:18:23;95202.31;;;14.70;53.96
7754;BME280;3921;42.266;23.122;2023-03-21T17:20:59;94894.53;;;12.90;53.30
7754;BME280;3921;42.266;23.122;2023-03-21T17:23:31;94939.91;;;12.90;56.49
7754;BME280;3921;42.266;23.122;2023-03-21T17:25:59;95205.88;;;14.63;59.74
7754;BME280;3921;42.266;23.122;2023-03-21T17:28:27;94747.81;;;11.72;61.87
7754;BME280;3921;42.266;23.122;2023-03-21T17:30:54;95109.38;;;13.80;64.25
7754;BME280;3921;42.266;23.122;2023-03-21T17:33:22;94949.00;;;12.60;66.01
7754;BME280;3921;42.266;23.122;2023-03-21T17:35:55;95103.50;;;13.44;67.67
7754;BME280;3921;42.266;23.122;2023-03-21T17:38:24;94847.28;;;11.89;69.38
7754;BME280;3921;42.266;23.122;2023-03-21T17:40:51;94743.19;;;11.11;69.23
7754;BME280;3921;42.266;23.122;2023-03-21T17:43:25;94694.09;;;10.94;69.01
7754;BME280;3921;42.266;23.122;2023-03-21T17:45:53;94763.88;;;11.26;69.68
7754;BME280;3921;42.266;23.122;2023-03-21T17:48:24;94856.22;;;11.61;73.04
7754;BME280;3921;42.266;23.122;2023-03-21T17:50:51;94850.56;;;11.50;72.87
7754;BME280;3921;42.266;23.122;2023-03-21T17:53:19;94958.28;;;12.19;74.00
7754;BME280;3921;42.266;23.122;2023-03-21T17:55:48;94962.47;;;12.20;74.81
7754;BME280;3921;42.266;23.122;2023-03-21T17:58:16;95136.53;;;13.33;75.84
7754;BME280;3921;42.266;23.122;2023-03-21T18:03:46;94790.09;;;10.68;78.30
7754;BME280;3921;42.266;23.122;2023-03-21T18:06:36;94994.19;;;11.85;78.74
7754;BME280;3921;42.266;23.122;2023-03-21T18:12:24;94714.66;;;10.23;79.06
7754;BME280;3921;42.266;23.122;2023-03-21T18:14:58;95277.22;;;13.64;80.08
7754;BME280;3921;42.266;23.122;2023-03-21T18:17:31;94787.59;;;10.68;81.21
7754;BME280;3921;42.266;23.122;2023-03-21T18:20:19;94877.66;;;10.90;81.17
7754;BME280;3921;42.266;23.122;2023-03-21T18:22:58;94780.56;;;10.35;81.41
7754;BME280;3921;42.266;23.122;2023-03-21T18:25:37;95271.88;;;13.36;82.26
7754;BME280;3921;42.266;23.122;2023-03-21T18:28:19;95239.03;;;13.39;81.71
7754;BME280;3921;42.266;23.122;2023-03-21T18:30:50;94959.50;;;11.55;82.15
7754;BME280;3921;42.266;23.122;2023-03-21T18:33:21;95106.38;;;12.46;81.26
7754;BME280;3921;42.266;23.122;2023-03-21T18:35:49;94796.97;;;10.56;80.57
7754;BME280;3921;42.266;23.122;2023-03-21T18:38:16;95233.34;;;13.31;82.52
7754;BME280;3921;42.266;23.122;2023-03-21T18:40:44;95244.19;;;13.34;82.24
7754;BME280;3921;42.266;23.122;2023-03-21T18:43:13;94900.88;;;11.03;82.52
7754;BME280;3921;42.266;23.122;2023-03-21T18:45:40;95111.22;;;12.56;82.75
7754;BME280;3921;42.266;23.122;2023-03-21T18:48:07;95257.75;;;13.28;83.67
7754;BME280;3921;42.266;23.122;2023-03-21T18:50:39;95252.66;;;13.32;83.43
7754;BME280;3921;42.266;23.122;2023-03-21T18:53:06;94979.63;;;11.55;83.39
7754;BME280;3921;42.266;23.122;2023-03-21T18:55:34;94767.59;;;10.07;83.36
7754;BME280;3921;42.266;23.122;2023-03-21T18:58:14;94829.75;;;10.49;83.03
7754;BME280;3921;42.266;23.122;2023-03-21T19:01:10;95148.34;;;12.47;83.71
7754;BME280;3921;42.266;23.122;2023-03-21T19:03:43;94755.28;;;9.94;83.52
7754;BME280;3921;42.266;23.122;2023-03-21T19:06:28;94803.31;;;10.28;83.23
7754;BME280;3921;42.266;23.122;2023-03-21T19:08:57;94711.22;;;9.74;83.09
7754;BME280;3921;42.266;23.122;2023-03-21T19:12:21;94771.81;;;10.05;82.98
7754;BME280;3921;42.266;23.122;2023-03-21T19:17:39;94771.84;;;10.02;83.03
7754;BME280;3921;42.266;23.122;2023-03-21T19:22:44;94701.47;;;9.56;82.63
7754;BME280;3921;42.266;23.122;2023-03-21T19:25:39;94811.88;;;10.11;83.15
7754;BME280;3921;42.266;23.122;2023-03-21T19:45:33;94786.34;;;9.83;84.41
7754;BME280;3921;42.266;23.122;2023-03-21T19:48:01;94766.50;;;9.70;83.96
7754;BME280;3921;42.266;23.122;2023-03-21T19:50:28;94805.31;;;10.04;84.40
7754;BME280;3921;42.266;23.122;2023-03-21T19:52:57;94737.56;;;9.44;84.72
7754;BME280;3921;42.266;23.122;2023-03-21T19:55:28;94788.78;;;9.90;85.22
7754;BME280;3921;42.266;23.122;2023-03-21T19:57:58;94841.16;;;10.13;85.01
7754;BME280;3921;42.266;23.122;2023-03-21T20:00:30;94749.09;;;9.59;84.92
7754;BME280;3921;42.266;23.122;2023-03-21T20:03:00;94766.53;;;9.67;84.80
7754;BME280;3921;42.266;23.122;2023-03-21T20:05:28;94819.41;;;10.11;85.19
7754;BME280;3921;42.266;23.122;2023-03-21T20:08:04;94793.09;;;9.80;85.72
7754;BME280;3921;42.266;23.122;2023-03-21T20:13:28;94826.31;;;9.96;86.57
7754;BME280;3921;42.266;23.122;2023-03-21T20:16:09;95192.31;;;12.31;87.24
7754;BME280;3921;42.266;23.122;2023-03-21T20:18:53;95079.09;;;11.74;86.91
7754;BME280;3921;42.266;23.122;2023-03-21T20:21:25;94858.59;;;10.23;86.67
7754;BME280;3921;42.266;23.122;2023-03-21T20:24:15;95048.31;;;11.60;86.34
7754;BME280;3921;42.266;23.122;2023-03-21T20:26:44;94794.69;;;9.85;87.09
7754;BME280;3921;42.266;23.122;2023-03-21T20:29:20;94778.88;;;9.79;86.81
7754;BME280;3921;42.266;23.122;2023-03-21T20:32:04;94805.47;;;9.91;86.79
7754;BME280;3921;42.266;23.122;2023-03-21T20:34:41;94734.94;;;9.53;86.24
7754;BME280;3921;42.266;23.122;2023-03-21T20:37:14;95191.84;;;12.56;86.66
7754;BME280;3921;42.266;23.122;2023-03-21T20:39:41;95023.38;;;11.48;86.56
7754;BME280;3921;42.266;23.122;2023-03-21T20:47:22;94724.63;;;9.73;86.29
7754;BME280;3921;42.266;23.122;2023-03-21T20:49:51;95131.19;;;12.21;86.83
7754;BME280;3921;42.266;23.122;2023-03-21T20:55:01;94752.31;;;9.67;87.45
7754;BME280;3921;42.266;23.122;2023-03-21T21:02:45;94836.94;;;10.15;87.89
7754;BME280;3921;42.266;23.122;2023-03-21T21:05:21;94741.63;;;9.54;88.46
7754;BME280;3921;42.266;23.122;2023-03-21T21:28:18;95142.34;;;12.07;89.00
7754;BME280;3921;42.266;23.122;2023-03-21T21:30:46;94850.34;;;10.15;89.43
7754;BME280;3921;42.266;23.122;2023-03-21T21:35:48;94747.19;;;9.73;89.71
7754;BME280;3921;42.266;23.122;2023-03-21T21:41:16;94753.34;;;9.52;89.21
7754;BME280;3921;42.266;23.122;2023-03-21T21:47:03;94780.53;;;9.80;89.07
7754;BME280;3921;42.266;23.122;2023-03-21T21:49:34;94768.19;;;9.68;89.68
7754;BME280;3921;42.266;23.122;2023-03-21T21:54:45;94945.50;;;10.89;90.04
7754;BME280;3921;42.266;23.122;2023-03-21T21:57:13;94939.81;;;10.78;90.29
7754;BME280;3921;42.266;23.122;2023-03-21T21:59:43;95157.59;;;11.98;90.88
7754;BME280;3921;42.266;23.122;2023-03-21T22:02:13;94785.84;;;9.60;90.09
7754;BME280;3921;42.266;23.122;2023-03-21T22:04:55;94989.63;;;11.08;90.56
7754;BME280;3921;42.266;23.122;2023-03-21T22:07:26;95157.50;;;12.04;91.14
7754;BME280;3921;42.266;23.122;2023-03-21T22:09:53;95146.50;;;12.11;90.74
7754;BME280;3921;42.266;23.122;2023-03-21T22:12:20;95119.94;;;11.93;90.97
7754;BME280;3921;42.266;23.122;2023-03-21T22:14:48;94746.75;;;9.47;90.23
7754;BME280;3921;42.266;23.122;2023-03-21T22:17:37;95125.84;;;11.90;90.75
7754;BME280;3921;42.266;23.122;2023-03-21T22:20:16;94886.09;;;10.32;90.58
7754;BME280;3921;42.266;23.122;2023-03-21T22:22:46;95248.78;;;12.69;90.79
7754;BME280;3921;42.266;23.122;2023-03-21T22:25:27;95252.19;;;12.65;91.13
7754;BME280;3921;42.266;23.122;2023-03-21T22:27:57;94901.06;;;10.37;90.87
7754;BME280;3921;42.266;23.122;2023-03-21T22:30:25;94717.03;;;9.19;91.00
7754;BME280;3921;42.266;23.122;2023-03-21T22:32:57;94960.84;;;10.72;91.03
7754;BME280;3921;42.266;23.122;2023-03-21T22:40:39;94711.25;;;9.11;90.63
7754;BME280;3921;42.266;23.122;2023-03-21T22:43:22;95037.25;;;11.19;90.69
7754;BME280;3921;42.266;23.122;2023-03-21T22:45:49;94754.41;;;9.35;90.91
7754;BME280;3921;42.266;23.122;2023-03-21T22:51:32;95014.84;;;11.04;91.05
7754;BME280;3921;42.266;23.122;2023-03-21T22:54:01;95251.50;;;12.57;91.28
7754;BME280;3921;42.266;23.122;2023-03-21T22:59:03;94770.56;;;9.77;91.07
7754;BME280;3921;42.266;23.122;2023-03-21T23:01:31;94844.47;;;10.13;90.59
7754;BME280;3921;42.266;23.122;2023-03-21T23:04:17;95106.66;;;11.83;90.97
7754;BME280;3921;42.266;23.122;2023-03-21T23:06:46;94786.41;;;9.79;90.59
7754;BME280;3921;42.266;23.122;2023-03-21T23:09:14;95017.31;;;11.05;90.70
7754;BME280;3921;42.266;23.122;2023-03-21T23:11:45;94736.81;;;9.41;90.70
7754;BME280;3921;42.266;23.122;2023-03-21T23:14:14;94771.59;;;9.62;90.34
7754;BME280;3921;42.266;23.122;2023-03-21T23:16:42;94711.19;;;9.17;90.31
7754;BME280;3921;42.266;23.122;2023-03-21T23:19:09;94780.00;;;9.60;90.67
7754;BME280;3921;42.266;23.122;2023-03-21T23:21:38;94930.47;;;10.30;91.06
7754;BME280;3921;42.266;23.122;2023-03-21T23:24:07;95165.06;;;12.05;91.32
7754;BME280;3921;42.266;23.122;2023-03-21T23:26:39;94745.97;;;9.40;90.80
7754;BME280;3921;42.266;23.122;2023-03-21T23:29:06;94799.09;;;9.68;90.24
7754;BME280;3921;42.266;23.122;2023-03-21T23:31:34;95245.75;;;12.48;91.10
7754;BME280;3921;42.266;23.122;2023-03-21T23:34:02;95249.03;;;12.54;91.02
7754;BME280;3921;42.266;23.122;2023-03-21T23:36:29;94992.25;;;11.01;90.61
7754;BME280;3921;42.266;23.122;2023-03-21T23:38:56;95145.97;;;11.90;90.49
7754;BME280;3921;42.266;23.122;2023-03-21T23:41:25;94913.63;;;10.39;90.99
7754;BME280;3921;42.266;23.122;2023-03-21T23:43:51;94863.88;;;10.02;90.82
7754;BME280;3921;42.266;23.122;2023-03-21T23:46:22;95225.69;;;12.42;90.76
7754;BME280;3921;42.266;23.122;2023-03-21T23:48:49;94951.91;;;10.56;90.76
7754;BME280;3921;42.266;23.122;2023-03-21T23:51:17;94730.41;;;9.17;90.74
7754;BME280;3921;42.266;23.122;2023-03-21T23:53:48;94852.94;;;10.07;90.81
7754;BME280;3921;42.266;23.122;2023-03-21T23:56:17;95001.56;;;10.96;91.13
7754;BME280;3921;42.266;23.122;2023-03-21T23:58:49;94844.84;;;9.89;90.74
